sensor_id;sensor_type;location;lat;lon;timestamp;temperature;humidity
24158;DHT22;12316;50.904;4.200;2023-05-23T00:01:35;13.60;99.90
24158;DHT22;12316;50.904;4.200;2023-05-23T00:04:02;13.60;99.90
24158;DHT22;12316;50.904;4.200;2023-05-23T00:06:28;13.60;99.90
24158;DHT22;12316;50.904;4.200;2023-05-23T00:08:54;13.60;99.90
24158;DHT22;12316;50.904;4.200;2023-05-23T00:11:20;13.60;99.90
24158;DHT22;12316;50.904;4.200;2023-05-23T00:13:51;13.60;99.90
24158;DHT22;12316;50.904;4.200;2023-05-23T00:16:18;13.70;99.90
24158;DHT22;12316;50.904;4.200;2023-05-23T00:18:43;13.70;99.90
24158;DHT22;12316;50.904;4.200;2023-05-23T00:21:10;13.60;99.90
24158;DHT22;12316;50.904;4.200;2023-05-23T00:23:38;13.70;99.90
24158;DHT22;12316;50.904;4.200;2023-05-23T00:26:10;13.80;99.90
24158;DHT22;12316;50.904;4.200;2023-05-23T00:28:38;13.90;99.90
24158;DHT22;12316;50.904;4.200;2023-05-23T00:31:04;13.80;99.90
24158;DHT22;12316;50.904;4.200;2023-05-23T00:33:30;13.80;99.90
24158;DHT22;12316;50.904;4.200;2023-05-23T00:35:58;13.80;99.90
24158;DHT22;12316;50.904;4.200;2023-05-23T00:38:24;13.80;99.90
24158;DHT22;12316;50.904;4.200;2023-05-23T00:40:51;13.90;99.90
24158;DHT22;12316;50.904;4.200;2023-05-23T00:43:17;13.80;99.90
24158;DHT22;12316;50.904;4.200;2023-05-23T00:45:43;13.90;99.90
24158;DHT22;12316;50.904;4.200;2023-05-23T00:48:09;14.00;99.90
24158;DHT22;12316;50.904;4.200;2023-05-23T00:50:36;14.00;99.90
24158;DHT22;12316;50.904;4.200;2023-05-23T00:53:02;14.00;99.90
24158;DHT22;12316;50.904;4.200;2023-05-23T00:55:28;14.00;99.90
24158;DHT22;12316;50.904;4.200;2023-05-23T00:57:55;14.10;99.90
24158;DHT22;12316;50.904;4.200;2023-05-23T01:00:22;14.00;99.90
24158;DHT22;12316;50.904;4.200;2023-05-23T01:02:50;14.00;99.90
24158;DHT22;12316;50.904;4.200;2023-05-23T01:05:17;14.00;99.90
24158;DHT22;12316;50.904;4.200;2023-05-23T01:07:44;14.00;99.90
24158;DHT22;12316;50.904;4.200;2023-05-23T01:10:10;14.00;99.90
24158;DHT22;12316;50.904;4.200;2023-05-23T01:15:12;14.20;99.90
24158;DHT22;12316;50.904;4.200;2023-05-23T01:20:37;14.30;99.90
24158;DHT22;12316;50.904;4.200;2023-05-23T01:28:55;14.20;99.90
24158;DHT22;12316;50.904;4.200;2023-05-23T01:31:25;14.20;99.90
24158;DHT22;12316;50.904;4.200;2023-05-23T01:33:53;14.20;99.90
24158;DHT22;12316;50.904;4.200;2023-05-23T01:36:20;14.20;99.90
24158;DHT22;12316;50.904;4.200;2023-05-23T01:38:46;14.20;99.90
24158;DHT22;12316;50.904;4.200;2023-05-23T01:41:11;14.10;99.90
24158;DHT22;12316;50.904;4.200;2023-05-23T01:43:37;14.10;99.90
24158;DHT22;12316;50.904;4.200;2023-05-23T01:46:03;14.10;99.90
24158;DHT22;12316;50.904;4.200;2023-05-23T01:48:30;14.10;99.90
24158;DHT22;12316;50.904;4.200;2023-05-23T01:50:57;14.00;99.90
24158;DHT22;12316;50.904;4.200;2023-05-23T01:53:24;14.10;99.90
24158;DHT22;12316;50.904;4.200;2023-05-23T01:55:51;14.00;99.90
24158;DHT22;12316;50.904;4.200;2023-05-23T01:58:18;14.00;99.90
24158;DHT22;12316;50.904;4.200;2023-05-23T02:00:44;14.00;99.90
24158;DHT22;12316;50.904;4.200;2023-05-23T02:03:10;13.90;99.90
24158;DHT22;12316;50.904;4.200;2023-05-23T02:05:36;13.90;99.90
24158;DHT22;12316;50.904;4.200;2023-05-23T02:08:01;13.90;99.90
24158;DHT22;12316;50.904;4.200;2023-05-23T02:10:27;14.00;99.90
24158;DHT22;12316;50.904;4.200;2023-05-23T02:12:53;14.10;99.90
24158;DHT22;12316;50.904;4.200;2023-05-23T02:15:19;14.10;99.90
24158;DHT22;12316;50.904;4.200;2023-05-23T02:17:45;14.00;99.90
24158;DHT22;12316;50.904;4.200;2023-05-23T02:20:12;14.00;99.90
24158;DHT22;12316;50.904;4.200;2023-05-23T02:22:38;14.10;99.90
24158;DHT22;12316;50.904;4.200;2023-05-23T02:25:04;14.20;99.90
24158;DHT22;12316;50.904;4.200;2023-05-23T02:27:30;14.00;99.90
24158;DHT22;12316;50.904;4.200;2023-05-23T02:29:56;14.00;99.90
24158;DHT22;12316;50.904;4.200;2023-05-23T02:32:21;14.00;99.90
24158;DHT22;12316;50.904;4.200;2023-05-23T02:34:47;14.00;99.90
24158;DHT22;12316;50.904;4.200;2023-05-23T02:37:14;14.10;99.90
24158;DHT22;12316;50.904;4.200;2023-05-23T02:39:41;14.00;99.90
24158;DHT22;12316;50.904;4.200;2023-05-23T02:42:07;14.10;99.90
24158;DHT22;12316;50.904;4.200;2023-05-23T02:44:33;14.10;99.90
24158;DHT22;12316;50.904;4.200;2023-05-23T02:46:58;14.10;99.90
24158;DHT22;12316;50.904;4.200;2023-05-23T02:49:24;14.10;99.90
24158;DHT22;12316;50.904;4.200;2023-05-23T02:51:50;14.10;99.90
24158;DHT22;12316;50.904;4.200;2023-05-23T02:54:15;14.20;99.90
24158;DHT22;12316;50.904;4.200;2023-05-23T02:56:41;14.20;99.90
24158;DHT22;12316;50.904;4.200;2023-05-23T02:59:07;14.20;99.90
24158;DHT22;12316;50.904;4.200;2023-05-23T03:01:33;14.20;99.90
24158;DHT22;12316;50.904;4.200;2023-05-23T03:03:59;14.30;99.90
24158;DHT22;12316;50.904;4.200;2023-05-23T03:06:25;14.40;99.90
24158;DHT22;12316;50.904;4.200;2023-05-23T03:08:51;14.10;99.90
24158;DHT22;12316;50.904;4.200;2023-05-23T03:11:17;14.00;99.90
24158;DHT22;12316;50.904;4.200;2023-05-23T03:13:44;13.90;99.90
24158;DHT22;12316;50.904;4.200;2023-05-23T03:16:10;13.80;99.90
24158;DHT22;12316;50.904;4.200;2023-05-23T03:18:37;13.90;99.90
24158;DHT22;12316;50.904;4.200;2023-05-23T03:21:02;13.90;99.90
24158;DHT22;12316;50.904;4.200;2023-05-23T03:23:28;13.90;99.90
24158;DHT22;12316;50.904;4.200;2023-05-23T03:25:54;13.90;99.90
24158;DHT22;12316;50.904;4.200;2023-05-23T03:28:19;13.90;99.90
24158;DHT22;12316;50.904;4.200;2023-05-23T03:30:45;13.90;99.90
24158;DHT22;12316;50.904;4.200;2023-05-23T03:33:10;13.80;99.90
24158;DHT22;12316;50.904;4.200;2023-05-23T03:35:36;13.70;99.90
24158;DHT22;12316;50.904;4.200;2023-05-23T03:38:02;13.80;99.90
24158;DHT22;12316;50.904;4.200;2023-05-23T03:40:28;13.80;99.90
24158;DHT22;12316;50.904;4.200;2023-05-23T03:43:07;13.70;99.90
24158;DHT22;12316;50.904;4.200;2023-05-23T03:45:33;13.70;99.90
24158;DHT22;12316;50.904;4.200;2023-05-23T03:47:59;13.80;99.90
24158;DHT22;12316;50.904;4.200;2023-05-23T03:50:25;13.80;99.90
24158;DHT22;12316;50.904;4.200;2023-05-23T03:52:51;13.90;99.90
24158;DHT22;12316;50.904;4.200;2023-05-23T03:55:17;13.80;99.90
24158;DHT22;12316;50.904;4.200;2023-05-23T03:57:50;13.90;99.90
24158;DHT22;12316;50.904;4.200;2023-05-23T04:00:16;13.90;99.90
24158;DHT22;12316;50.904;4.200;2023-05-23T04:02:43;14.00;99.90
24158;DHT22;12316;50.904;4.200;2023-05-23T04:05:10;14.00;99.90
24158;DHT22;12316;50.904;4.200;2023-05-23T04:07:36;14.10;99.90
24158;DHT22;12316;50.904;4.200;2023-05-23T04:10:02;14.10;99.90
24158;DHT22;12316;50.904;4.200;2023-05-23T04:12:28;14.20;99.90
24158;DHT22;12316;50.904;4.200;2023-05-23T04:14:57;14.30;99.90
24158;DHT22;12316;50.904;4.200;2023-05-23T04:17:23;14.20;99.90
24158;DHT22;12316;50.904;4.200;2023-05-23T04:19:50;14.30;99.90
24158;DHT22;12316;50.904;4.200;2023-05-23T04:22:16;14.40;99.90
24158;DHT22;12316;50.904;4.200;2023-05-23T04:24:42;14.50;99.90
24158;DHT22;12316;50.904;4.200;2023-05-23T04:27:07;14.40;99.90
24158;DHT22;12316;50.904;4.200;2023-05-23T04:29:34;14.60;99.90
24158;DHT22;12316;50.904;4.200;2023-05-23T04:32:00;14.70;99.90
24158;DHT22;12316;50.904;4.200;2023-05-23T04:34:26;14.60;99.90
24158;DHT22;12316;50.904;4.200;2023-05-23T04:36:52;14.60;99.90
24158;DHT22;12316;50.904;4.200;2023-05-23T04:39:19;14.70;99.90
24158;DHT22;12316;50.904;4.200;2023-05-23T04:41:44;14.60;99.90
24158;DHT22;12316;50.904;4.200;2023-05-23T04:44:11;14.60;99.90
24158;DHT22;12316;50.904;4.200;2023-05-23T04:46:37;14.70;99.90
24158;DHT22;12316;50.904;4.200;2023-05-23T04:49:07;14.50;99.90
24158;DHT22;12316;50.904;4.200;2023-05-23T04:51:33;14.50;99.90
24158;DHT22;12316;50.904;4.200;2023-05-23T04:53:59;14.60;99.90
24158;DHT22;12316;50.904;4.200;2023-05-23T04:56:25;14.70;99.90
24158;DHT22;12316;50.904;4.200;2023-05-23T04:58:52;14.80;99.90
24158;DHT22;12316;50.904;4.200;2023-05-23T05:01:18;14.60;99.90
24158;DHT22;12316;50.904;4.200;2023-05-23T05:03:45;14.50;99.90
24158;DHT22;12316;50.904;4.200;2023-05-23T05:06:12;14.50;99.90
24158;DHT22;12316;50.904;4.200;2023-05-23T05:08:38;14.50;99.90
24158;DHT22;12316;50.904;4.200;2023-05-23T05:11:05;14.20;99.90
24158;DHT22;12316;50.904;4.200;2023-05-23T05:13:30;14.20;99.90
24158;DHT22;12316;50.904;4.200;2023-05-23T05:15:56;14.20;99.90
24158;DHT22;12316;50.904;4.200;2023-05-23T05:18:24;14.20;99.90
24158;DHT22;12316;50.904;4.200;2023-05-23T05:20:50;14.10;99.90
24158;DHT22;12316;50.904;4.200;2023-05-23T05:23:16;14.10;99.90
24158;DHT22;12316;50.904;4.200;2023-05-23T05:25:41;14.10;99.90
24158;DHT22;12316;50.904;4.200;2023-05-23T05:28:07;14.00;99.90
24158;DHT22;12316;50.904;4.200;2023-05-23T05:30:34;14.00;99.90
24158;DHT22;12316;50.904;4.200;2023-05-23T05:33:03;14.00;99.90
24158;DHT22;12316;50.904;4.200;2023-05-23T05:35:33;14.00;99.90
24158;DHT22;12316;50.904;4.200;2023-05-23T05:37:59;13.90;99.90
24158;DHT22;12316;50.904;4.200;2023-05-23T05:40:25;14.00;99.90
24158;DHT22;12316;50.904;4.200;2023-05-23T05:42:51;14.10;99.90
24158;DHT22;12316;50.904;4.200;2023-05-23T05:45:17;14.00;99.90
24158;DHT22;12316;50.904;4.200;2023-05-23T05:47:44;14.00;99.90
24158;DHT22;12316;50.904;4.200;2023-05-23T05:50:10;13.90;99.90
24158;DHT22;12316;50.904;4.200;2023-05-23T05:52:36;13.80;99.90
24158;DHT22;12316;50.904;4.200;2023-05-23T05:55:10;13.90;99.90
24158;DHT22;12316;50.904;4.200;2023-05-23T05:57:36;13.80;99.90
24158;DHT22;12316;50.904;4.200;2023-05-23T06:00:10;13.70;99.90
24158;DHT22;12316;50.904;4.200;2023-05-23T06:02:40;13.50;99.90
24158;DHT22;12316;50.904;4.200;2023-05-23T06:05:09;13.40;99.90
24158;DHT22;12316;50.904;4.200;2023-05-23T06:07:40;13.30;99.90
24158;DHT22;12316;50.904;4.200;2023-05-23T06:10:07;13.40;99.90
24158;DHT22;12316;50.904;4.200;2023-05-23T06:12:34;13.30;99.90
24158;DHT22;12316;50.904;4.200;2023-05-23T06:15:00;13.40;99.90
24158;DHT22;12316;50.904;4.200;2023-05-23T06:17:27;13.50;99.90
24158;DHT22;12316;50.904;4.200;2023-05-23T06:19:53;13.50;99.90
24158;DHT22;12316;50.904;4.200;2023-05-23T06:22:18;13.40;99.90
24158;DHT22;12316;50.904;4.200;2023-05-23T06:24:44;13.50;99.90
24158;DHT22;12316;50.904;4.200;2023-05-23T06:27:11;13.60;99.90
24158;DHT22;12316;50.904;4.200;2023-05-23T06:29:37;13.60;99.90
24158;DHT22;12316;50.904;4.200;2023-05-23T06:32:03;13.80;99.90
24158;DHT22;12316;50.904;4.200;2023-05-23T06:34:28;14.00;99.90
24158;DHT22;12316;50.904;4.200;2023-05-23T06:36:54;13.90;99.90
24158;DHT22;12316;50.904;4.200;2023-05-23T06:39:20;13.90;99.90
24158;DHT22;12316;50.904;4.200;2023-05-23T06:41:46;13.80;99.90
24158;DHT22;12316;50.904;4.200;2023-05-23T06:44:12;13.80;99.90
24158;DHT22;12316;50.904;4.200;2023-05-23T06:46:37;13.90;99.90
24158;DHT22;12316;50.904;4.200;2023-05-23T06:49:03;14.10;99.90
24158;DHT22;12316;50.904;4.200;2023-05-23T06:51:28;14.00;99.90
24158;DHT22;12316;50.904;4.200;2023-05-23T06:53:54;14.20;99.90
24158;DHT22;12316;50.904;4.200;2023-05-23T06:56:22;14.20;99.90
24158;DHT22;12316;50.904;4.200;2023-05-23T06:58:48;14.30;99.90
24158;DHT22;12316;50.904;4.200;2023-05-23T07:01:13;14.40;99.90
24158;DHT22;12316;50.904;4.200;2023-05-23T07:03:39;14.40;99.90
24158;DHT22;12316;50.904;4.200;2023-05-23T07:06:06;14.60;99.90
24158;DHT22;12316;50.904;4.200;2023-05-23T07:08:32;14.80;99.90
24158;DHT22;12316;50.904;4.200;2023-05-23T07:10:58;15.10;99.90
24158;DHT22;12316;50.904;4.200;2023-05-23T07:13:24;15.20;99.90
24158;DHT22;12316;50.904;4.200;2023-05-23T07:15:49;15.10;99.90
24158;DHT22;12316;50.904;4.200;2023-05-23T07:18:15;15.10;99.90
24158;DHT22;12316;50.904;4.200;2023-05-23T07:20:40;15.10;99.90
24158;DHT22;12316;50.904;4.200;2023-05-23T07:23:06;15.00;99.90
24158;DHT22;12316;50.904;4.200;2023-05-23T07:25:32;15.10;99.90
24158;DHT22;12316;50.904;4.200;2023-05-23T07:27:58;15.10;99.90
24158;DHT22;12316;50.904;4.200;2023-05-23T07:30:24;15.20;99.90
24158;DHT22;12316;50.904;4.200;2023-05-23T07:32:49;15.60;99.90
24158;DHT22;12316;50.904;4.200;2023-05-23T07:35:17;16.00;99.90
24158;DHT22;12316;50.904;4.200;2023-05-23T07:37:43;16.20;99.90
24158;DHT22;12316;50.904;4.200;2023-05-23T07:40:09;16.10;99.90
24158;DHT22;12316;50.904;4.200;2023-05-23T07:42:35;15.80;99.90
24158;DHT22;12316;50.904;4.200;2023-05-23T07:45:02;15.80;99.90
24158;DHT22;12316;50.904;4.200;2023-05-23T07:47:28;16.00;99.90
24158;DHT22;12316;50.904;4.200;2023-05-23T07:49:53;16.00;99.90
24158;DHT22;12316;50.904;4.200;2023-05-23T07:52:19;16.10;99.90
24158;DHT22;12316;50.904;4.200;2023-05-23T07:54:45;16.10;99.90
24158;DHT22;12316;50.904;4.200;2023-05-23T07:57:11;15.70;99.90
24158;DHT22;12316;50.904;4.200;2023-05-23T07:59:37;15.80;99.90
24158;DHT22;12316;50.904;4.200;2023-05-23T08:02:03;15.60;99.90
24158;DHT22;12316;50.904;4.200;2023-05-23T08:04:29;15.70;99.90
24158;DHT22;12316;50.904;4.200;2023-05-23T08:06:55;15.80;99.90
24158;DHT22;12316;50.904;4.200;2023-05-23T08:09:22;15.90;99.90
24158;DHT22;12316;50.904;4.200;2023-05-23T08:11:47;15.80;99.90
24158;DHT22;12316;50.904;4.200;2023-05-23T08:14:13;15.80;99.90
24158;DHT22;12316;50.904;4.200;2023-05-23T08:16:39;15.80;99.90
24158;DHT22;12316;50.904;4.200;2023-05-23T08:19:05;15.80;99.90
24158;DHT22;12316;50.904;4.200;2023-05-23T08:21:30;16.10;99.90
24158;DHT22;12316;50.904;4.200;2023-05-23T08:23:57;16.20;99.90
24158;DHT22;12316;50.904;4.200;2023-05-23T08:26:23;16.10;99.90
24158;DHT22;12316;50.904;4.200;2023-05-23T08:28:49;15.80;99.90
24158;DHT22;12316;50.904;4.200;2023-05-23T08:31:15;15.80;99.90
24158;DHT22;12316;50.904;4.200;2023-05-23T08:33:41;15.90;99.90
24158;DHT22;12316;50.904;4.200;2023-05-23T08:36:09;16.00;99.90
24158;DHT22;12316;50.904;4.200;2023-05-23T08:38:34;16.10;99.90
24158;DHT22;12316;50.904;4.200;2023-05-23T08:41:00;16.20;99.90
24158;DHT22;12316;50.904;4.200;2023-05-23T08:43:27;16.30;99.90
24158;DHT22;12316;50.904;4.200;2023-05-23T08:45:53;16.00;99.90
24158;DHT22;12316;50.904;4.200;2023-05-23T08:48:19;15.90;99.90
24158;DHT22;12316;50.904;4.200;2023-05-23T08:50:47;15.70;99.90
24158;DHT22;12316;50.904;4.200;2023-05-23T08:53:16;15.50;99.90
24158;DHT22;12316;50.904;4.200;2023-05-23T08:55:48;15.40;99.90
24158;DHT22;12316;50.904;4.200;2023-05-23T08:58:17;15.30;99.90
24158;DHT22;12316;50.904;4.200;2023-05-23T09:00:47;15.30;99.90
24158;DHT22;12316;50.904;4.200;2023-05-23T09:03:14;15.40;99.90
24158;DHT22;12316;50.904;4.200;2023-05-23T09:05:41;15.30;99.90
24158;DHT22;12316;50.904;4.200;2023-05-23T09:08:07;15.40;99.90
24158;DHT22;12316;50.904;4.200;2023-05-23T09:10:33;15.40;99.90
24158;DHT22;12316;50.904;4.200;2023-05-23T09:13:00;15.40;99.90
24158;DHT22;12316;50.904;4.200;2023-05-23T09:15:26;15.60;99.90
24158;DHT22;12316;50.904;4.200;2023-05-23T09:17:53;15.70;99.90
24158;DHT22;12316;50.904;4.200;2023-05-23T09:20:23;15.70;99.90
24158;DHT22;12316;50.904;4.200;2023-05-23T09:22:49;15.70;99.90
24158;DHT22;12316;50.904;4.200;2023-05-23T09:25:15;15.60;99.90
24158;DHT22;12316;50.904;4.200;2023-05-23T09:27:41;15.60;99.90
24158;DHT22;12316;50.904;4.200;2023-05-23T09:30:09;15.60;99.90
24158;DHT22;12316;50.904;4.200;2023-05-23T09:32:35;15.60;99.90
24158;DHT22;12316;50.904;4.200;2023-05-23T09:35:02;15.80;99.90
24158;DHT22;12316;50.904;4.200;2023-05-23T09:37:48;15.80;99.90
24158;DHT22;12316;50.904;4.200;2023-05-23T09:40:14;15.80;99.90
24158;DHT22;12316;50.904;4.200;2023-05-23T09:42:47;16.00;99.90
24158;DHT22;12316;50.904;4.200;2023-05-23T09:45:13;15.90;99.90
24158;DHT22;12316;50.904;4.200;2023-05-23T09:47:48;15.90;99.90
24158;DHT22;12316;50.904;4.200;2023-05-23T09:50:16;16.10;99.90
24158;DHT22;12316;50.904;4.200;2023-05-23T09:52:41;16.20;99.90
24158;DHT22;12316;50.904;4.200;2023-05-23T09:55:07;16.20;99.90
24158;DHT22;12316;50.904;4.200;2023-05-23T09:57:40;16.30;99.90
24158;DHT22;12316;50.904;4.200;2023-05-23T10:00:07;16.20;99.90
24158;DHT22;12316;50.904;4.200;2023-05-23T10:03:14;16.30;99.90
24158;DHT22;12316;50.904;4.200;2023-05-23T10:08:13;16.30;99.90
24158;DHT22;12316;50.904;4.200;2023-05-23T10:13:43;16.60;99.90
24158;DHT22;12316;50.904;4.200;2023-05-23T10:16:15;16.80;99.90
24158;DHT22;12316;50.904;4.200;2023-05-23T10:18:44;17.10;99.90
24158;DHT22;12316;50.904;4.200;2023-05-23T10:21:17;17.10;99.90
24158;DHT22;12316;50.904;4.200;2023-05-23T10:23:46;17.00;99.90
24158;DHT22;12316;50.904;4.200;2023-05-23T10:26:13;17.00;99.90
24158;DHT22;12316;50.904;4.200;2023-05-23T10:28:40;17.50;99.90
24158;DHT22;12316;50.904;4.200;2023-05-23T10:31:07;17.70;99.90
24158;DHT22;12316;50.904;4.200;2023-05-23T10:33:37;17.80;99.90
24158;DHT22;12316;50.904;4.200;2023-05-23T10:36:21;17.60;99.90
24158;DHT22;12316;50.904;4.200;2023-05-23T10:39:01;17.70;99.90
24158;DHT22;12316;50.904;4.200;2023-05-23T10:41:35;17.80;99.90
24158;DHT22;12316;50.904;4.200;2023-05-23T10:44:22;17.80;99.90
24158;DHT22;12316;50.904;4.200;2023-05-23T10:49:18;17.50;99.90
24158;DHT22;12316;50.904;4.200;2023-05-23T10:51:50;17.40;99.90
24158;DHT22;12316;50.904;4.200;2023-05-23T10:54:18;17.40;99.90
24158;DHT22;12316;50.904;4.200;2023-05-23T10:56:46;17.70;99.90
24158;DHT22;12316;50.904;4.200;2023-05-23T10:59:19;18.30;99.90
24158;DHT22;12316;50.904;4.200;2023-05-23T11:01:48;18.50;99.90
24158;DHT22;12316;50.904;4.200;2023-05-23T11:04:14;18.40;99.90
24158;DHT22;12316;50.904;4.200;2023-05-23T11:06:41;18.00;99.90
24158;DHT22;12316;50.904;4.200;2023-05-23T11:09:26;18.00;99.90
24158;DHT22;12316;50.904;4.200;2023-05-23T11:12:03;18.00;99.90
24158;DHT22;12316;50.904;4.200;2023-05-23T11:14:51;18.20;99.90
24158;DHT22;12316;50.904;4.200;2023-05-23T11:17:25;18.40;99.90
24158;DHT22;12316;50.904;4.200;2023-05-23T11:20:06;18.50;99.90
24158;DHT22;12316;50.904;4.200;2023-05-23T11:22:33;18.50;99.90
24158;DHT22;12316;50.904;4.200;2023-05-23T11:25:00;17.90;99.90
24158;DHT22;12316;50.904;4.200;2023-05-23T11:27:37;17.80;99.90
24158;DHT22;12316;50.904;4.200;2023-05-23T11:30:08;17.80;99.90
24158;DHT22;12316;50.904;4.200;2023-05-23T11:32:35;17.90;99.90
24158;DHT22;12316;50.904;4.200;2023-05-23T11:35:08;18.00;99.90
24158;DHT22;12316;50.904;4.200;2023-05-23T11:37:37;18.00;99.90
24158;DHT22;12316;50.904;4.200;2023-05-23T11:40:25;18.20;99.90
24158;DHT22;12316;50.904;4.200;2023-05-23T11:42:52;18.40;99.90
24158;DHT22;12316;50.904;4.200;2023-05-23T11:45:25;18.60;99.90
24158;DHT22;12316;50.904;4.200;2023-05-23T11:47:51;18.80;99.90
24158;DHT22;12316;50.904;4.200;2023-05-23T11:50:17;18.60;99.90
24158;DHT22;12316;50.904;4.200;2023-05-23T11:52:45;18.60;99.90
24158;DHT22;12316;50.904;4.200;2023-05-23T11:55:16;18.20;99.90
24158;DHT22;12316;50.904;4.200;2023-05-23T11:57:43;18.20;99.90
24158;DHT22;12316;50.904;4.200;2023-05-23T12:00:09;17.90;99.90
24158;DHT22;12316;50.904;4.200;2023-05-23T12:02:42;17.90;99.90
24158;DHT22;12316;50.904;4.200;2023-05-23T12:05:09;18.20;99.90
24158;DHT22;12316;50.904;4.200;2023-05-23T12:07:39;17.90;99.90
24158;DHT22;12316;50.904;4.200;2023-05-23T12:10:05;17.90;99.90
24158;DHT22;12316;50.904;4.200;2023-05-23T12:12:31;18.10;99.90
24158;DHT22;12316;50.904;4.200;2023-05-23T12:14:57;18.20;99.90
24158;DHT22;12316;50.904;4.200;2023-05-23T12:17:23;18.50;99.90
24158;DHT22;12316;50.904;4.200;2023-05-23T12:19:49;18.80;99.90
24158;DHT22;12316;50.904;4.200;2023-05-23T12:22:24;18.60;99.90
24158;DHT22;12316;50.904;4.200;2023-05-23T12:24:53;18.20;99.90
24158;DHT22;12316;50.904;4.200;2023-05-23T12:27:29;18.20;99.90
24158;DHT22;12316;50.904;4.200;2023-05-23T12:32:41;17.80;99.90
24158;DHT22;12316;50.904;4.200;2023-05-23T12:35:12;17.70;99.90
24158;DHT22;12316;50.904;4.200;2023-05-23T12:37:43;17.80;99.90
24158;DHT22;12316;50.904;4.200;2023-05-23T12:40:14;18.00;99.90
24158;DHT22;12316;50.904;4.200;2023-05-23T12:45:21;18.20;99.90
24158;DHT22;12316;50.904;4.200;2023-05-23T12:47:47;18.60;99.90
24158;DHT22;12316;50.904;4.200;2023-05-23T12:50:12;19.20;99.90
24158;DHT22;12316;50.904;4.200;2023-05-23T12:52:38;19.10;99.90
24158;DHT22;12316;50.904;4.200;2023-05-23T12:55:05;18.80;99.90
24158;DHT22;12316;50.904;4.200;2023-05-23T12:57:33;18.40;99.90
24158;DHT22;12316;50.904;4.200;2023-05-23T12:59:59;18.30;99.90
24158;DHT22;12316;50.904;4.200;2023-05-23T13:02:26;18.40;99.90
24158;DHT22;12316;50.904;4.200;2023-05-23T13:04:52;18.50;99.90
24158;DHT22;12316;50.904;4.200;2023-05-23T13:07:17;18.40;99.90
24158;DHT22;12316;50.904;4.200;2023-05-23T13:09:43;18.20;99.90
24158;DHT22;12316;50.904;4.200;2023-05-23T13:12:09;18.10;99.90
24158;DHT22;12316;50.904;4.200;2023-05-23T13:14:34;18.00;99.90
24158;DHT22;12316;50.904;4.200;2023-05-23T13:17:00;18.20;99.90
24158;DHT22;12316;50.904;4.200;2023-05-23T13:19:26;18.40;99.90
24158;DHT22;12316;50.904;4.200;2023-05-23T13:21:52;18.10;99.90
24158;DHT22;12316;50.904;4.200;2023-05-23T13:24:18;17.90;99.90
24158;DHT22;12316;50.904;4.200;2023-05-23T13:26:44;17.90;99.90
24158;DHT22;12316;50.904;4.200;2023-05-23T13:29:09;17.70;99.90
24158;DHT22;12316;50.904;4.200;2023-05-23T13:31:35;17.60;99.90
24158;DHT22;12316;50.904;4.200;2023-05-23T13:34:01;17.60;99.90
24158;DHT22;12316;50.904;4.200;2023-05-23T13:36:26;17.70;99.90
24158;DHT22;12316;50.904;4.200;2023-05-23T13:38:53;17.80;99.90
24158;DHT22;12316;50.904;4.200;2023-05-23T13:41:18;18.00;99.90
24158;DHT22;12316;50.904;4.200;2023-05-23T13:43:44;18.30;99.90
24158;DHT22;12316;50.904;4.200;2023-05-23T13:46:11;18.30;99.90
24158;DHT22;12316;50.904;4.200;2023-05-23T13:48:37;18.20;99.90
24158;DHT22;12316;50.904;4.200;2023-05-23T13:51:03;18.10;99.90
24158;DHT22;12316;50.904;4.200;2023-05-23T13:53:29;18.10;99.90
24158;DHT22;12316;50.904;4.200;2023-05-23T13:55:55;18.30;99.90
24158;DHT22;12316;50.904;4.200;2023-05-23T13:58:20;18.30;99.90
24158;DHT22;12316;50.904;4.200;2023-05-23T14:00:46;18.30;99.90
24158;DHT22;12316;50.904;4.200;2023-05-23T14:03:12;18.20;99.90
24158;DHT22;12316;50.904;4.200;2023-05-23T14:05:40;18.10;99.90
24158;DHT22;12316;50.904;4.200;2023-05-23T14:08:05;18.20;99.90
24158;DHT22;12316;50.904;4.200;2023-05-23T14:10:31;18.10;99.90
24158;DHT22;12316;50.904;4.200;2023-05-23T14:13:00;18.10;99.90
24158;DHT22;12316;50.904;4.200;2023-05-23T14:15:26;18.10;99.90
24158;DHT22;12316;50.904;4.200;2023-05-23T14:17:52;17.90;99.90
24158;DHT22;12316;50.904;4.200;2023-05-23T14:20:23;18.00;99.90
24158;DHT22;12316;50.904;4.200;2023-05-23T14:22:49;18.10;99.90
24158;DHT22;12316;50.904;4.200;2023-05-23T14:25:16;17.90;99.90
24158;DHT22;12316;50.904;4.200;2023-05-23T14:27:42;17.70;99.90
24158;DHT22;12316;50.904;4.200;2023-05-23T14:30:09;17.70;99.90
24158;DHT22;12316;50.904;4.200;2023-05-23T14:32:35;17.70;99.90
24158;DHT22;12316;50.904;4.200;2023-05-23T14:35:08;17.80;99.90
24158;DHT22;12316;50.904;4.200;2023-05-23T14:37:34;17.60;99.90
24158;DHT22;12316;50.904;4.200;2023-05-23T14:40:00;17.40;99.90
24158;DHT22;12316;50.904;4.200;2023-05-23T14:42:26;17.50;99.90
24158;DHT22;12316;50.904;4.200;2023-05-23T14:44:53;17.50;99.90
24158;DHT22;12316;50.904;4.200;2023-05-23T14:47:19;17.80;99.90
24158;DHT22;12316;50.904;4.200;2023-05-23T14:49:46;17.80;99.90
24158;DHT22;12316;50.904;4.200;2023-05-23T14:52:12;17.60;99.90
24158;DHT22;12316;50.904;4.200;2023-05-23T14:54:38;17.70;99.90
24158;DHT22;12316;50.904;4.200;2023-05-23T14:57:08;17.80;99.90
24158;DHT22;12316;50.904;4.200;2023-05-23T14:59:34;17.80;99.90
24158;DHT22;12316;50.904;4.200;2023-05-23T15:02:01;17.80;99.90
24158;DHT22;12316;50.904;4.200;2023-05-23T15:04:27;17.70;99.90
24158;DHT22;12316;50.904;4.200;2023-05-23T15:06:55;17.60;99.90
24158;DHT22;12316;50.904;4.200;2023-05-23T15:09:20;17.50;99.90
24158;DHT22;12316;50.904;4.200;2023-05-23T15:11:47;17.40;99.90
24158;DHT22;12316;50.904;4.200;2023-05-23T15:14:14;17.60;99.90
24158;DHT22;12316;50.904;4.200;2023-05-23T15:16:40;17.70;99.90
24158;DHT22;12316;50.904;4.200;2023-05-23T15:19:09;17.50;99.90
24158;DHT22;12316;50.904;4.200;2023-05-23T15:21:35;17.30;99.90
24158;DHT22;12316;50.904;4.200;2023-05-23T15:24:01;17.20;99.90
24158;DHT22;12316;50.904;4.200;2023-05-23T15:26:27;17.10;99.90
24158;DHT22;12316;50.904;4.200;2023-05-23T15:28:53;17.20;99.90
24158;DHT22;12316;50.904;4.200;2023-05-23T15:31:19;17.10;99.90
24158;DHT22;12316;50.904;4.200;2023-05-23T15:33:45;17.00;99.90
24158;DHT22;12316;50.904;4.200;2023-05-23T15:36:12;17.00;99.90
24158;DHT22;12316;50.904;4.200;2023-05-23T15:38:38;16.90;99.90
24158;DHT22;12316;50.904;4.200;2023-05-23T15:41:03;16.90;99.90
24158;DHT22;12316;50.904;4.200;2023-05-23T15:43:31;16.90;99.90
24158;DHT22;12316;50.904;4.200;2023-05-23T15:45:57;17.20;99.90
24158;DHT22;12316;50.904;4.200;2023-05-23T15:48:23;17.10;99.90
24158;DHT22;12316;50.904;4.200;2023-05-23T15:50:48;17.30;99.90
24158;DHT22;12316;50.904;4.200;2023-05-23T15:53:14;17.20;99.90
24158;DHT22;12316;50.904;4.200;2023-05-23T15:55:40;17.10;99.90